Time;durP1;ratioP1;P1;durP2;ratioP2;P2;SDS_P1;SDS_P2;PMS_P1;PMS_P2;Temp;Humidity;BMP_temperature;BMP_pressure;BME280_temperature;BME280_humidity;BME280_pressure;Samples;Min_cycle;Max_cycle;Signal;HPM_P1;HPM_P2
2022/12/23 00:00:19;;;;;;;12.35;7.55;;;23.80;99.90;;;;;;5055465;28;20083;-57
2022/12/23 00:02:45;;;;;;;11.75;6.78;;;23.80;99.90;;;;;;5055451;28;20079;-57
2022/12/23 00:05:12;;;;;;;11.93;7.45;;;23.70;99.90;;;;;;5055642;28;20032;-57
2022/12/23 00:07:38;;;;;;;11.20;7.25;;;23.70;99.90;;;;;;5055528;28;20024;-57
2022/12/23 00:10:04;;;;;;;12.57;7.00;;;23.70;99.90;;;;;;5038018;28;20409;-57
2022/12/23 00:15:14;;;;;;;12.23;7.28;;;23.70;99.90;;;;;;5055617;28;20059;-57
2022/12/23 00:17:44;;;;;;;11.27;6.57;;;23.60;99.90;;;;;;5055407;28;20053;-57
2022/12/23 00:20:12;;;;;;;12.75;7.68;;;23.70;99.90;;;;;;5055387;28;20364;-58
2022/12/23 00:25:39;;;;;;;11.77;7.15;;;23.60;99.90;;;;;;5055418;28;20099;-57
2022/12/23 00:28:20;;;;;;;14.38;8.35;;;23.60;99.90;;;;;;5055165;28;20506;-57
2022/12/23 00:30:57;;;;;;;12.35;7.22;;;23.60;99.90;;;;;;5055158;28;20017;-57
2022/12/23 00:33:26;;;;;;;15.23;7.55;;;23.60;99.90;;;;;;5055089;28;20394;-57
2022/12/23 00:35:52;;;;;;;11.90;7.40;;;23.60;99.90;;;;;;5055106;28;20029;-57
2022/12/23 00:43:50;;;;;;;12.40;7.97;;;23.50;99.90;;;;;;5054476;28;20032;-57
2022/12/23 00:46:15;;;;;;;14.55;7.95;;;23.50;99.90;;;;;;5054363;28;20017;-57
2022/12/23 00:51:25;;;;;;;11.30;7.43;;;23.50;99.90;;;;;;5054925;28;20060;-58
2022/12/23 00:53:51;;;;;;;18.60;7.68;;;23.50;99.90;;;;;;5054622;28;20998;-58
2022/12/23 00:56:17;;;;;;;10.63;7.40;;;23.50;99.90;;;;;;5054632;28;20025;-57
2022/12/23 00:58:42;;;;;;;10.82;7.00;;;23.40;99.90;;;;;;5054568;28;20383;-58
2022/12/23 01:06:36;;;;;;;11.35;7.40;;;23.40;99.90;;;;;;5054739;28;20039;-58
2022/12/23 01:09:02;;;;;;;11.43;7.95;;;23.40;99.90;;;;;;5054505;28;20092;-58
2022/12/23 01:11:28;;;;;;;13.23;7.60;;;23.40;99.90;;;;;;5054679;28;20047;-58
2022/12/23 01:13:54;;;;;;;10.40;7.22;;;23.40;99.90;;;;;;5054256;28;20029;-58
2022/12/23 01:16:19;;;;;;;11.75;7.40;;;23.40;99.90;;;;;;5054054;28;20025;-58
2022/12/23 01:18:45;;;;;;;12.48;7.15;;;23.40;99.90;;;;;;5054067;28;20029;-57
2022/12/23 01:21:13;;;;;;;12.13;7.68;;;23.30;99.90;;;;;;5054135;28;20025;-57
2022/12/23 01:23:38;;;;;;;11.15;7.72;;;23.30;99.90;;;;;;5036204;28;20120;-58
2022/12/23 01:26:06;;;;;;;14.48;7.57;;;23.30;99.90;;;;;;5054114;28;20145;-57
2022/12/23 01:28:32;;;;;;;;;;;23.30;99.90;;;;;;5054626;28;20494;-58
2022/12/23 01:30:59;;;;;;;11.82;6.90;;;23.30;99.90;;;;;;5053973;28;19904;-57
2022/12/23 01:33:25;;;;;;;11.60;7.45;;;23.30;99.90;;;;;;5054040;28;20054;-58
2022/12/23 01:35:51;;;;;;;11.10;6.63;;;23.30;99.90;;;;;;5053867;28;20048;-58
2022/12/23 01:38:17;;;;;;;10.52;7.05;;;23.30;99.90;;;;;;5053779;28;20090;-57
2022/12/23 01:40:44;;;;;;;10.15;7.35;;;23.30;99.90;;;;;;5053877;28;20032;-58
2022/12/23 01:43:19;;;;;;;11.50;7.22;;;23.20;99.90;;;;;;5053890;28;20053;-58
2022/12/23 01:45:45;;;;;;;12.93;7.35;;;23.20;99.90;;;;;;5053756;28;20115;-58
2022/12/23 01:48:20;;;;;;;12.68;7.68;;;23.20;99.90;;;;;;5035773;28;20494;-58
2022/12/23 01:50:54;;;;;;;10.38;7.32;;;23.20;99.90;;;;;;5053799;28;20457;-57
2022/12/23 01:53:30;;;;;;;11.50;7.60;;;23.20;99.90;;;;;;5053470;28;20025;-58
2022/12/23 01:56:02;;;;;;;13.43;8.13;;;23.20;99.90;;;;;;5036869;28;20091;-57
2022/12/23 01:58:30;;;;;;;10.85;7.82;;;23.10;99.90;;;;;;5053424;28;20032;-57
2022/12/23 02:03:44;;;;;;;14.07;8.20;;;23.10;99.90;;;;;;5053603;28;20060;-57
2022/12/23 02:09:18;;;;;;;12.93;7.65;;;23.10;99.90;;;;;;5053587;28;20047;-57
2022/12/23 02:11:53;;;;;;;11.68;7.53;;;23.10;99.90;;;;;;5053362;28;20028;-57
2022/12/23 02:17:36;;;;;;;11.02;7.65;;;23.10;99.90;;;;;;5053137;28;20505;-57
2022/12/23 02:20:16;;;;;;;11.23;8.45;;;23.00;99.90;;;;;;5053212;28;20067;-57
2022/12/23 02:23:06;;;;;;;12.20;7.32;;;23.00;99.90;;;;;;5052994;28;20522;-57
2022/12/23 02:25:50;;;;;;;11.40;7.68;;;23.00;99.90;;;;;;5053345;28;20100;-57
2022/12/23 02:29:13;;;;;;;11.55;8.10;;;23.00;99.90;;;;;;5052915;28;20398;-57
2022/12/23 02:32:08;;;;;;;15.35;8.68;;;23.00;99.90;;;;;;4952917;29;20027;-57
2022/12/23 02:34:43;;;;;;;12.98;8.48;;;22.90;99.90;;;;;;4952864;29;20478;-58
2022/12/23 02:37:24;;;;;;;12.25;8.45;;;22.90;99.90;;;;;;5025035;28;20077;-56
2022/12/23 02:40:14;;;;;;;12.63;8.25;;;22.90;99.90;;;;;;5052661;28;20087;-57
2022/12/23 02:42:52;;;;;;;11.63;8.43;;;22.90;99.90;;;;;;5052652;28;20017;-57
2022/12/23 02:45:43;;;;;;;14.18;7.88;;;22.90;99.90;;;;;;5035097;28;20025;-57
2022/12/23 02:48:15;;;;;;;13.48;8.13;;;22.90;99.90;;;;;;5014289;28;20399;-57
2022/12/23 02:50:44;;;;;;;11.63;8.45;;;22.90;99.90;;;;;;5052516;28;20033;-57
2022/12/23 02:53:31;;;;;;;12.20;7.88;;;22.80;99.90;;;;;;5052406;28;20036;-57
2022/12/23 02:55:59;;;;;;;13.00;8.43;;;22.90;99.90;;;;;;5034530;28;20020;-57
2022/12/23 02:58:37;;;;;;;11.70;8.20;;;22.80;99.90;;;;;;5052253;28;20479;-57
2022/12/23 03:01:05;;;;;;;14.65;8.68;;;22.80;99.90;;;;;;5052864;28;20519;-57
2022/12/23 03:03:31;;;;;;;13.63;8.82;;;22.80;99.90;;;;;;5052385;28;20079;-57
2022/12/23 03:05:57;;;;;;;14.55;8.55;;;22.80;99.90;;;;;;5052224;28;20410;-57
2022/12/23 03:08:27;;;;;;;13.82;8.98;;;22.80;99.90;;;;;;5051907;28;20025;-57
2022/12/23 03:10:56;;;;;;;11.60;7.65;;;22.80;99.90;;;;;;5052359;28;20059;-57
2022/12/23 03:13:47;;;;;;;15.75;9.38;;;22.80;99.90;;;;;;5052169;28;20021;-57
2022/12/23 03:16:21;;;;;;;15.23;8.93;;;22.80;99.90;;;;;;5034485;28;20028;-57
2022/12/23 03:19:02;;;;;;;13.02;9.45;;;22.70;99.90;;;;;;5034268;28;20083;-57
2022/12/23 03:21:41;;;;;;;12.07;9.00;;;22.70;99.90;;;;;;5052126;28;20382;-58
2022/12/23 03:24:46;;;;;;;13.00;8.63;;;22.70;99.90;;;;;;5052166;28;20052;-57
2022/12/23 03:27:29;;;;;;;10.30;8.00;;;22.70;99.90;;;;;;5052022;28;20113;-56
2022/12/23 03:30:12;;;;;;;12.95;8.25;;;22.70;99.90;;;;;;5052073;28;20474;-57
2022/12/23 03:33:07;;;;;;;11.27;7.80;;;22.60;99.90;;;;;;5052064;28;20024;-57
2022/12/23 03:35:38;;;;;;;12.43;8.85;;;22.70;99.90;;;;;;5052036;28;20079;-57
2022/12/23 03:38:07;;;;;;;11.18;7.72;;;22.60;99.90;;;;;;5034063;28;20032;-57
2022/12/23 03:40:41;;;;;;;12.90;8.18;;;22.60;99.90;;;;;;5051945;28;20021;-58
2022/12/23 03:43:15;;;;;;;12.38;8.07;;;22.60;99.90;;;;;;5052176;28;20053;-58
2022/12/23 03:45:51;;;;;;;13.32;8.35;;;22.60;99.90;;;;;;5051812;28;20025;-58
2022/12/23 03:48:40;;;;;;;12.45;8.45;;;22.60;99.90;;;;;;5051903;28;20486;-57
2022/12/23 03:51:14;;;;;;;11.45;8.27;;;22.60;99.90;;;;;;5051945;28;20033;-56
2022/12/23 03:53:49;;;;;;;13.02;8.23;;;22.50;99.90;;;;;;5051952;28;20078;-57
2022/12/23 03:56:37;;;;;;;11.95;8.20;;;22.50;99.90;;;;;;5051847;28;20032;-56
2022/12/23 03:59:28;;;;;;;10.05;7.25;;;22.50;99.90;;;;;;5051842;28;20094;-56
2022/12/23 04:02:15;;;;;;;11.55;7.65;;;22.50;99.90;;;;;;5001609;28;20112;-57
2022/12/23 04:04:50;;;;;;;8.77;6.72;;;22.50;99.90;;;;;;5010801;28;20026;-57
2022/12/23 04:07:35;;;;;;;12.52;8.60;;;22.50;99.90;;;;;;5012115;28;20022;-57
2022/12/23 04:10:02;;;;;;;12.07;7.60;;;22.50;99.90;;;;;;5011984;28;20204;-60
2022/12/23 04:12:28;;;;;;;11.18;7.38;;;22.50;99.90;;;;;;5012052;28;20030;-61
2022/12/23 04:14:54;;;;;;;11.98;7.53;;;22.50;99.90;;;;;;5012107;28;20412;-57
2022/12/23 04:17:20;;;;;;;10.57;7.30;;;22.50;99.90;;;;;;5012023;28;20032;-57
2022/12/23 04:19:46;;;;;;;26.17;9.90;;;22.50;99.90;;;;;;5012995;28;20045;-58
2022/12/23 04:22:13;;;;;;;22.17;9.75;;;22.50;99.90;;;;;;5015553;28;20028;-57
2022/12/23 04:24:39;;;;;;;16.85;7.45;;;22.40;99.90;;;;;;5015665;28;20025;-57
2022/12/23 04:27:06;;;;;;;12.18;7.55;;;22.40;99.90;;;;;;5015536;28;20026;-57
2022/12/23 04:29:32;;;;;;;14.77;7.70;;;22.40;99.90;;;;;;5015565;28;20044;-57
2022/12/23 04:31:58;;;;;;;11.38;7.40;;;22.40;99.90;;;;;;5015312;28;20077;-56
2022/12/23 04:34:24;;;;;;;14.40;7.90;;;22.40;99.90;;;;;;5015416;28;20030;-56
2022/12/23 04:36:49;;;;;;;10.63;7.45;;;22.40;99.90;;;;;;5015400;28;20491;-56
2022/12/23 04:39:15;;;;;;;11.27;7.00;;;22.40;99.90;;;;;;5015178;28;20041;-56
2022/12/23 04:41:41;;;;;;;10.13;6.57;;;22.40;99.90;;;;;;5014242;28;20415;-56
2022/12/23 04:44:07;;;;;;;13.30;7.43;;;22.40;99.90;;;;;;5015152;28;20113;-56
2022/12/23 04:46:32;;;;;;;11.88;7.28;;;22.40;99.90;;;;;;5015011;28;20220;-56
2022/12/23 04:48:58;;;;;;;13.05;7.55;;;22.30;99.90;;;;;;5015068;28;20025;-56
2022/12/23 04:51:24;;;;;;;10.98;6.72;;;22.40;99.90;;;;;;5015132;28;20034;-56
2022/12/23 04:53:50;;;;;;;12.05;6.50;;;22.30;99.90;;;;;;5014858;28;20419;-56
2022/12/23 04:56:15;;;;;;;11.27;7.07;;;22.30;99.90;;;;;;5014057;28;20030;-56
2022/12/23 04:58:41;;;;;;;11.35;6.93;;;22.30;99.90;;;;;;5015219;28;20037;-56
2022/12/23 05:01:09;;;;;;;10.10;7.05;;;22.30;99.90;;;;;;5045906;28;20455;-56
2022/12/23 05:03:36;;;;;;;10.18;6.40;;;22.30;99.90;;;;;;5054515;28;20028;-56
2022/12/23 05:06:02;;;;;;;10.20;6.43;;;22.30;99.90;;;;;;5020273;28;20024;-56
2022/12/23 05:08:28;;;;;;;12.65;6.50;;;22.30;99.90;;;;;;5054371;28;20428;-56
2022/12/23 05:10:55;;;;;;;10.93;6.60;;;22.30;99.90;;;;;;5054427;28;20104;-56
2022/12/23 05:13:21;;;;;;;10.20;6.38;;;22.30;99.90;;;;;;5054362;28;20032;-56
2022/12/23 05:15:52;;;;;;;9.55;5.97;;;22.20;99.90;;;;;;5054280;28;20064;-56
2022/12/23 05:18:18;;;;;;;11.80;6.55;;;22.20;99.90;;;;;;5054073;28;20104;-56
2022/12/23 05:20:44;;;;;;;12.93;6.65;;;22.30;99.90;;;;;;5054354;28;20044;-56
2022/12/23 05:23:10;;;;;;;9.38;6.53;;;22.20;99.90;;;;;;5054422;28;20032;-56
2022/12/23 05:25:38;;;;;;;14.07;6.97;;;22.20;99.90;;;;;;5054182;28;20029;-56
2022/12/23 05:28:04;;;;;;;11.00;6.50;;;22.20;99.90;;;;;;5054049;28;20143;-56
2022/12/23 05:30:31;;;;;;;9.20;5.67;;;22.20;99.90;;;;;;5053706;28;20029;-56
2022/12/23 05:32:57;;;;;;;11.98;5.97;;;22.20;99.90;;;;;;5053877;28;20308;-57
2022/12/23 05:35:24;;;;;;;13.70;6.60;;;22.20;99.90;;;;;;5053886;28;20399;-56
2022/12/23 05:37:50;;;;;;;9.93;6.13;;;22.20;99.90;;;;;;5053926;28;20028;-57
2022/12/23 05:40:16;;;;;;;12.07;5.72;;;22.20;99.90;;;;;;5053796;28;20124;-57
2022/12/23 05:42:42;;;;;;;13.38;6.22;;;22.10;99.90;;;;;;5053975;28;20032;-58
2022/12/23 05:45:08;;;;;;;11.65;5.80;;;22.20;99.90;;;;;;5053770;28;20441;-58
2022/12/23 05:47:34;;;;;;;13.65;6.07;;;22.10;99.90;;;;;;5053728;28;20032;-57
2022/12/23 05:50:00;;;;;;;12.30;6.25;;;22.10;99.90;;;;;;5053600;28;20353;-58
2022/12/23 05:52:26;;;;;;;13.73;6.65;;;22.10;99.90;;;;;;5053619;28;20105;-58
2022/12/23 05:54:51;;;;;;;9.93;4.70;;;22.10;99.90;;;;;;5053613;28;20047;-58
2022/12/23 05:57:17;;;;;;;10.18;5.40;;;22.10;99.90;;;;;;5053419;28;20044;-58
2022/12/23 05:59:43;;;;;;;12.45;6.95;;;22.10;99.90;;;;;;5053546;28;20045;-58
2022/12/23 06:02:08;;;;;;;12.40;6.53;;;22.10;99.90;;;;;;5053497;28;20021;-58
2022/12/23 06:04:34;;;;;;;9.80;6.03;;;22.10;99.90;;;;;;5053291;28;20029;-58
2022/12/23 06:07:00;;;;;;;11.30;5.63;;;22.10;99.90;;;;;;5053388;28;20067;-58
2022/12/23 06:09:26;;;;;;;10.48;5.78;;;22.10;99.90;;;;;;5035880;28;20036;-58
2022/12/23 06:11:52;;;;;;;14.23;5.82;;;22.10;99.90;;;;;;5053271;28;20486;-58
2022/12/23 06:14:17;;;;;;;8.25;5.10;;;22.10;99.90;;;;;;5053161;28;20048;-58
2022/12/23 06:16:43;;;;;;;12.38;5.75;;;22.10;99.90;;;;;;5053399;28;20394;-57
2022/12/23 06:19:09;;;;;;;9.60;5.60;;;22.00;99.90;;;;;;5052997;28;20029;-57
2022/12/23 06:21:35;;;;;;;9.95;5.65;;;22.00;99.90;;;;;;5035447;28;20020;-57
2022/12/23 06:24:00;;;;;;;8.45;5.10;;;22.00;99.90;;;;;;5053074;28;20035;-57
2022/12/23 06:26:26;;;;;;;9.57;5.00;;;22.00;99.90;;;;;;5053041;28;20529;-57
2022/12/23 06:28:52;;;;;;;9.25;5.53;;;22.00;99.90;;;;;;5051574;28;20031;-57
2022/12/23 06:31:18;;;;;;;10.02;5.38;;;22.00;99.90;;;;;;5052967;28;20063;-57
2022/12/23 06:33:43;;;;;;;6.65;4.72;;;22.00;99.90;;;;;;5052955;28;20023;-57
2022/12/23 06:36:09;;;;;;;8.35;4.80;;;22.00;99.90;;;;;;5052852;28;20529;-57
2022/12/23 06:38:35;;;;;;;12.35;4.78;;;22.00;99.90;;;;;;5052599;28;20041;-56
2022/12/23 06:41:01;;;;;;;7.75;4.50;;;22.00;99.90;;;;;;5052791;28;20021;-57
2022/12/23 06:43:26;;;;;;;8.13;4.75;;;21.90;99.90;;;;;;5051993;28;20178;-56
2022/12/23 06:45:52;;;;;;;8.32;4.75;;;21.90;99.90;;;;;;5052646;28;20020;-57
2022/12/23 06:48:19;;;;;;;7.07;4.28;;;21.90;99.90;;;;;;5052672;28;20059;-57
2022/12/23 06:50:45;;;;;;;12.38;5.72;;;21.90;99.90;;;;;;5052828;28;20483;-56
2022/12/23 06:53:11;;;;;;;6.65;4.25;;;21.90;99.90;;;;;;5052442;28;20462;-57
2022/12/23 06:55:37;;;;;;;7.72;4.05;;;21.90;99.90;;;;;;5052537;28;20051;-57
2022/12/23 06:58:03;;;;;;;6.60;4.25;;;21.90;99.90;;;;;;5052330;28;20467;-57
2022/12/23 07:00:29;;;;;;;7.43;4.63;;;21.90;99.90;;;;;;5034419;28;20052;-57
2022/12/23 07:02:55;;;;;;;6.93;4.40;;;21.90;99.90;;;;;;5052181;28;20537;-57
2022/12/23 07:05:21;;;;;;;18.98;10.32;;;21.90;99.90;;;;;;5052258;28;20025;-57
2022/12/23 07:07:46;;;;;;;10.93;6.45;;;21.90;99.90;;;;;;5052489;28;20082;-57
2022/12/23 07:10:12;;;;;;;8.30;5.85;;;21.90;99.90;;;;;;5052085;28;20025;-57
2022/12/23 07:12:38;;;;;;;9.25;5.28;;;21.90;99.90;;;;;;5052082;28;20039;-57
2022/12/23 07:15:05;;;;;;;9.48;5.38;;;21.90;99.90;;;;;;5052118;28;20028;-56
2022/12/23 07:17:31;;;;;;;9.27;5.78;;;21.90;99.90;;;;;;5034259;28;20120;-56
2022/12/23 07:19:57;;;;;;;11.48;5.72;;;21.80;99.90;;;;;;5051873;28;20121;-57
2022/12/23 07:22:23;;;;;;;9.70;5.93;;;21.80;99.90;;;;;;5051849;28;20017;-57
2022/12/23 07:24:48;;;;;;;8.45;5.80;;;21.80;99.90;;;;;;5052207;28;20025;-57
2022/12/23 07:27:15;;;;;;;9.95;5.55;;;21.80;99.90;;;;;;5051945;28;20021;-57
2022/12/23 07:29:40;;;;;;;10.68;5.43;;;21.80;99.90;;;;;;5034116;28;20508;-56
2022/12/23 07:32:06;;;;;;;11.40;5.70;;;21.80;99.90;;;;;;5051942;28;20029;-56
2022/12/23 07:34:32;;;;;;;9.77;6.70;;;21.80;99.90;;;;;;5051840;28;20025;-57
2022/12/23 07:36:58;;;;;;;10.10;6.03;;;21.80;99.90;;;;;;5051942;28;20050;-56
2022/12/23 07:39:24;;;;;;;10.75;5.47;;;21.80;99.90;;;;;;5051832;28;20128;-56
2022/12/23 07:41:49;;;;;;;9.32;6.15;;;21.80;99.90;;;;;;5051866;28;20467;-56
2022/12/23 07:44:15;;;;;;;11.75;5.53;;;21.80;99.90;;;;;;5051913;28;20029;-56
2022/12/23 07:46:41;;;;;;;7.22;4.80;;;21.80;99.90;;;;;;5051767;28;20573;-57
2022/12/23 07:49:08;;;;;;;7.30;5.10;;;21.80;99.90;;;;;;5051892;28;20498;-57
2022/12/23 07:51:33;;;;;;;10.40;6.03;;;21.80;99.90;;;;;;5034139;28;20108;-56
2022/12/23 07:53:59;;;;;;;10.05;5.85;;;21.80;99.90;;;;;;5053162;28;20613;-56
2022/12/23 07:56:25;;;;;;;9.00;5.05;;;21.80;99.90;;;;;;5055832;28;20421;-57
2022/12/23 07:58:52;;;;;;;11.75;5.63;;;21.80;99.90;;;;;;5055855;28;20033;-56
2022/12/23 08:01:19;;;;;;;7.32;4.68;;;21.80;99.90;;;;;;5055679;28;20052;-56
2022/12/23 08:03:45;;;;;;;6.60;4.55;;;21.90;99.90;;;;;;5055903;28;20502;-56
2022/12/23 08:06:13;;;;;;;9.00;5.05;;;21.90;99.90;;;;;;5037771;28;20463;-56
2022/12/23 08:08:40;;;;;;;7.63;5.10;;;21.90;99.90;;;;;;5055629;28;20047;-57
2022/12/23 08:11:07;;;;;;;;;;;21.90;99.90;;;;;;5055961;28;20044;-57
2022/12/23 08:13:35;;;;;;;11.32;5.38;;;21.90;99.90;;;;;;5055334;28;19992;-57
2022/12/23 08:16:03;;;;;;;9.35;5.65;;;22.00;99.90;;;;;;5055422;28;20032;-57
2022/12/23 08:18:30;;;;;;;8.07;5.05;;;22.00;99.90;;;;;;5055064;28;20040;-57
2022/12/23 08:21:01;;;;;;;8.55;5.78;;;22.00;99.90;;;;;;5055181;28;20591;-56
2022/12/23 08:23:29;;;;;;;10.98;4.88;;;22.00;99.90;;;;;;5055201;28;20387;-57
2022/12/23 08:26:01;;;;;;;6.63;4.85;;;22.00;99.90;;;;;;5055270;28;20025;-56
2022/12/23 08:28:28;;;;;;;8.63;5.13;;;22.10;99.90;;;;;;5055033;28;20103;-57
2022/12/23 08:30:54;;;;;;;9.90;5.80;;;22.10;99.90;;;;;;5055372;28;20021;-56
2022/12/23 08:33:20;;;;;;;9.52;5.18;;;22.20;99.90;;;;;;5037448;28;20033;-56
2022/12/23 08:35:46;;;;;;;7.85;4.70;;;22.10;99.90;;;;;;5055018;28;20074;-57
2022/12/23 08:38:11;;;;;;;10.95;5.68;;;22.20;99.90;;;;;;5055002;28;20132;-57
2022/12/23 08:40:40;;;;;;;7.28;5.30;;;22.20;99.90;;;;;;5055015;28;20547;-56
2022/12/23 08:43:06;;;;;;;9.07;5.65;;;22.30;99.90;;;;;;5054974;28;20112;-57
2022/12/23 08:45:37;;;;;;;8.13;5.40;;;22.30;99.90;;;;;;5054847;28;20028;-57
2022/12/23 08:48:06;;;;;;;10.18;5.35;;;22.30;99.90;;;;;;5054709;28;20021;-57
2022/12/23 08:50:40;;;;;;;8.85;5.60;;;22.30;99.90;;;;;;5054784;28;20025;-57
2022/12/23 08:53:06;;;;;;;11.13;5.13;;;22.40;99.90;;;;;;5054510;28;20479;-57
2022/12/23 08:55:43;;;;;;;10.30;4.72;;;22.40;99.90;;;;;;5054549;28;20088;-57
2022/12/23 08:58:10;;;;;;;9.18;5.43;;;22.50;99.90;;;;;;5054479;28;20028;-57
2022/12/23 09:00:36;;;;;;;7.13;5.30;;;22.50;99.90;;;;;;5054048;28;20057;-57
2022/12/23 09:03:02;;;;;;;6.82;4.95;;;22.50;99.90;;;;;;5054580;28;20032;-57
2022/12/23 09:05:29;;;;;;;12.32;5.88;;;22.60;99.90;;;;;;5053572;28;20032;-57
2022/12/23 09:07:55;;;;;;;11.70;5.72;;;22.60;99.90;;;;;;5054623;28;20112;-56
2022/12/23 09:10:22;;;;;;;8.27;5.20;;;22.60;99.90;;;;;;5054794;28;20029;-57
2022/12/23 09:12:48;;;;;;;7.53;5.13;;;22.60;99.90;;;;;;5054139;28;20523;-57
2022/12/23 09:15:14;;;;;;;8.43;4.70;;;22.70;99.90;;;;;;5054497;28;20429;-57
2022/12/23 09:17:40;;;;;;;9.60;5.25;;;22.70;99.90;;;;;;5036406;28;20382;-56
2022/12/23 09:20:06;;;;;;;11.00;5.35;;;22.70;99.90;;;;;;5054171;28;20052;-57
2022/12/23 09:22:33;;;;;;;8.15;4.40;;;22.70;99.90;;;;;;5053935;28;20489;-56
2022/12/23 09:24:59;;;;;;;8.80;5.10;;;22.80;99.90;;;;;;5054321;28;20071;-57
2022/12/23 09:27:25;;;;;;;8.88;5.30;;;22.80;99.90;;;;;;5054279;28;20502;-57
2022/12/23 09:29:51;;;;;;;7.25;5.25;;;22.80;99.90;;;;;;5036328;28;20017;-57
2022/12/23 09:32:18;;;;;;;10.95;5.25;;;22.90;99.90;;;;;;5054001;28;20044;-57
2022/12/23 09:34:43;;;;;;;8.57;5.35;;;22.90;99.90;;;;;;5053863;28;20013;-56
2022/12/23 09:37:11;;;;;;;10.57;5.55;;;22.90;99.90;;;;;;5053847;28;20118;-57
2022/12/23 09:39:37;;;;;;;9.43;5.90;;;22.90;99.90;;;;;;5053770;28;20029;-56
2022/12/23 09:42:11;;;;;;;8.25;4.75;;;23.00;99.90;;;;;;5053808;28;20028;-56
2022/12/23 09:44:44;;;;;;;8.68;5.40;;;23.00;99.90;;;;;;5053842;28;20021;-56
2022/12/23 09:47:21;;;;;;;8.43;4.78;;;23.00;99.90;;;;;;5053662;28;20092;-57
2022/12/23 09:49:51;;;;;;;11.55;5.47;;;23.10;99.90;;;;;;5053460;28;20624;-56
2022/12/23 09:52:31;;;;;;;10.82;5.82;;;23.20;99.90;;;;;;5036220;28;20503;-57
2022/12/23 09:54:56;;;;;;;17.08;5.60;;;23.20;99.90;;;;;;5053769;28;20036;-56
2022/12/23 09:57:25;;;;;;;11.30;6.00;;;23.20;99.90;;;;;;5053433;28;20017;-57
2022/12/23 10:00:14;;;;;;;10.57;5.55;;;23.20;99.90;;;;;;5053044;28;20058;-56
2022/12/23 10:03:04;;;;;;;13.43;6.07;;;23.30;99.90;;;;;;5053487;28;20025;-57
2022/12/23 10:05:50;;;;;;;13.93;6.00;;;23.30;99.90;;;;;;5053297;28;20028;-56
2022/12/23 10:08:42;;;;;;;10.98;5.63;;;23.30;99.90;;;;;;5053359;28;20048;-57
2022/12/23 10:11:19;;;;;;;14.18;6.20;;;23.40;99.90;;;;;;5053253;28;20053;-56
2022/12/23 10:13:48;;;;;;;13.73;6.18;;;23.40;99.90;;;;;;5053301;28;20029;-56
2022/12/23 10:16:24;;;;;;;15.15;6.32;;;23.40;99.90;;;;;;5053045;28;20030;-56
2022/12/23 10:18:58;;;;;;;13.25;5.78;;;23.50;99.90;;;;;;5052069;28;20141;-56
2022/12/23 10:21:47;;;;;;;13.38;6.22;;;23.50;99.90;;;;;;5052937;28;20033;-56
2022/12/23 10:24:21;;;;;;;18.27;6.57;;;23.60;99.90;;;;;;5035010;28;20107;-56
2022/12/23 10:27:01;;;;;;;14.98;6.25;;;23.60;99.90;;;;;;5053020;28;20104;-60
2022/12/23 10:29:32;;;;;;;12.95;6.88;;;23.60;99.90;;;;;;5053170;28;20036;-56
2022/12/23 10:32:15;;;;;;;14.65;6.70;;;23.70;99.90;;;;;;5035333;28;20039;-57
2022/12/23 10:35:05;;;;;;;13.18;6.85;;;23.70;99.90;;;;;;5052567;28;20104;-56
2022/12/23 10:37:30;;;;;;;13.50;6.45;;;23.80;99.90;;;;;;5052727;28;20455;-57
2022/12/23 10:40:14;;;;;;;14.00;6.40;;;23.80;99.90;;;;;;5052870;28;20079;-56
2022/12/23 10:42:55;;;;;;;14.52;7.00;;;23.80;99.90;;;;;;5052657;28;20095;-57
2022/12/23 10:45:34;;;;;;;14.65;6.97;;;23.90;99.90;;;;;;5052532;28;20471;-57
2022/12/23 10:48:08;;;;;;;16.52;7.05;;;23.90;99.90;;;;;;5052801;28;20474;-56
2022/12/23 10:50:57;;;;;;;19.23;7.53;;;24.00;99.90;;;;;;5052562;28;20021;-56
2022/12/23 10:53:47;;;;;;;16.80;7.07;;;24.00;99.90;;;;;;5039450;28;20116;-57
2022/12/23 10:56:14;;;;;;;18.05;7.25;;;24.10;99.90;;;;;;5052424;28;20028;-57
2022/12/23 10:58:44;;;;;;;19.30;7.05;;;24.10;99.90;;;;;;5052132;28;20370;-56
2022/12/23 11:01:12;;;;;;;16.42;7.57;;;24.10;99.90;;;;;;5052125;28;20087;-57
2022/12/23 11:03:56;;;;;;;15.77;7.75;;;24.10;99.90;;;;;;5052132;28;20103;-57
2022/12/23 11:06:24;;;;;;;20.92;7.68;;;24.20;99.90;;;;;;5052268;28;20112;-56
2022/12/23 11:08:50;;;;;;;18.70;7.57;;;24.20;99.90;;;;;;5052158;28;20025;-56
2022/12/23 11:11:15;;;;;;;17.27;7.90;;;24.30;99.90;;;;;;5051997;28;20029;-56
2022/12/23 11:13:44;;;;;;;19.45;8.02;;;24.30;99.90;;;;;;5052163;28;20054;-56
2022/12/23 11:16:23;;;;;;;16.88;7.60;;;24.30;99.90;;;;;;5052111;28;20017;-57
2022/12/23 11:19:03;;;;;;;18.88;7.50;;;24.30;99.90;;;;;;5052039;28;20017;-57
2022/12/23 11:21:30;;;;;;;16.48;7.57;;;24.30;99.90;;;;;;5034294;28;20086;-56
2022/12/23 11:24:15;;;;;;;24.48;8.15;;;24.40;99.90;;;;;;5051895;28;20021;-57
2022/12/23 11:26:42;;;;;;;24.17;9.48;;;24.40;99.90;;;;;;5051960;28;20491;-57
2022/12/23 11:29:21;;;;;;;18.67;8.27;;;24.40;99.90;;;;;;5034033;28;20049;-56
2022/12/23 11:31:47;;;;;;;20.00;8.65;;;24.50;99.90;;;;;;5051718;28;20098;-56
2022/12/23 11:34:36;;;;;;;25.25;9.40;;;24.50;99.90;;;;;;5051745;28;20028;-56
2022/12/23 11:37:02;;;;;;;22.17;8.27;;;24.50;99.90;;;;;;5052052;28;20419;-56
2022/12/23 11:39:33;;;;;;;19.67;8.65;;;24.50;99.90;;;;;;5051582;28;20071;-52
2022/12/23 11:42:18;;;;;;;25.17;8.60;;;24.50;99.90;;;;;;5051802;28;20471;-54
2022/12/23 11:44:50;;;;;;;22.00;9.18;;;24.60;99.90;;;;;;5033815;28;20078;-58
2022/12/23 11:47:21;;;;;;;17.70;9.00;;;24.60;99.90;;;;;;5051664;28;20028;-58
2022/12/23 11:50:01;;;;;;;18.83;8.25;;;24.60;99.90;;;;;;5051635;28;20029;-57
2022/12/23 11:52:32;;;;;;;22.73;8.50;;;24.70;99.90;;;;;;5051563;28;20029;-57
2022/12/23 11:55:00;;;;;;;20.10;7.75;;;24.70;99.90;;;;;;5046642;28;20080;-57
2022/12/23 11:57:32;;;;;;;23.40;9.52;;;24.70;99.90;;;;;;5051089;28;20044;-57
2022/12/23 12:00:02;;;;;;;18.40;8.38;;;24.70;99.90;;;;;;5051181;28;20098;-55
2022/12/23 12:02:41;;;;;;;19.58;8.15;;;24.80;99.90;;;;;;5048515;28;20422;-56
2022/12/23 12:05:40;;;;;;;16.35;6.97;;;24.80;99.90;;;;;;5050060;28;20021;-55
2022/12/23 12:08:10;;;;;;;21.17;8.15;;;24.80;99.90;;;;;;5031710;28;20033;-56
2022/12/23 12:10:38;;;;;;;20.30;8.48;;;24.80;99.90;;;;;;5031458;28;20105;-56
2022/12/23 12:13:26;;;;;;;19.17;7.90;;;24.80;99.90;;;;;;5031784;28;20025;-55
2022/12/23 12:16:04;;;;;;;19.00;7.28;;;24.90;99.90;;;;;;5031636;28;20053;-55
2022/12/23 12:18:31;;;;;;;17.65;8.05;;;24.90;99.90;;;;;;5031529;28;20036;-55
2022/12/23 12:21:03;;;;;;;19.25;6.97;;;25.00;99.90;;;;;;5031456;28;20179;-55
2022/12/23 12:23:49;;;;;;;41.97;8.70;;;25.00;99.90;;;;;;5031409;28;20025;-57
